sensor_id;sensor_type;location;lat;lon;timestamp;P1;durP1;ratioP1;P2;durP2;ratioP2
48481;SDS011;34284;48.278;16.378;2022-07-06T00:01:50;345.90;;;216.13;;
48481;SDS011;34284;48.278;16.378;2022-07-06T00:04:17;352.13;;;214.27;;
48481;SDS011;34284;48.278;16.378;2022-07-06T00:06:43;350.20;;;217.23;;
48481;SDS011;34284;48.278;16.378;2022-07-06T00:09:09;359.33;;;214.67;;
48481;SDS011;34284;48.278;16.378;2022-07-06T00:11:35;354.13;;;215.80;;
48481;SDS011;34284;48.278;16.378;2022-07-06T00:14:01;363.00;;;215.73;;
48481;SDS011;34284;48.278;16.378;2022-07-06T00:16:27;348.27;;;214.90;;
48481;SDS011;34284;48.278;16.378;2022-07-06T00:18:53;352.80;;;215.13;;
48481;SDS011;34284;48.278;16.378;2022-07-06T00:21:19;355.40;;;213.47;;
48481;SDS011;34284;48.278;16.378;2022-07-06T00:23:45;351.23;;;213.60;;
48481;SDS011;34284;48.278;16.378;2022-07-06T00:26:11;354.03;;;218.30;;
48481;SDS011;34284;48.278;16.378;2022-07-06T00:28:37;365.13;;;216.47;;
48481;SDS011;34284;48.278;16.378;2022-07-06T00:31:03;354.00;;;219.37;;
48481;SDS011;34284;48.278;16.378;2022-07-06T00:33:30;349.43;;;213.53;;
48481;SDS011;34284;48.278;16.378;2022-07-06T00:35:56;367.73;;;217.60;;
48481;SDS011;34284;48.278;16.378;2022-07-06T00:38:22;351.00;;;216.83;;
48481;SDS011;34284;48.278;16.378;2022-07-06T00:40:49;354.37;;;218.07;;
48481;SDS011;34284;48.278;16.378;2022-07-06T00:43:15;343.00;;;210.33;;
48481;SDS011;34284;48.278;16.378;2022-07-06T00:45:41;352.23;;;217.93;;
48481;SDS011;34284;48.278;16.378;2022-07-06T00:48:08;351.27;;;210.80;;
48481;SDS011;34284;48.278;16.378;2022-07-06T00:50:34;352.77;;;214.67;;
48481;SDS011;34284;48.278;16.378;2022-07-06T00:53:01;359.87;;;216.20;;
48481;SDS011;34284;48.278;16.378;2022-07-06T00:55:32;344.17;;;212.80;;
48481;SDS011;34284;48.278;16.378;2022-07-06T00:57:59;348.80;;;216.33;;
48481;SDS011;34284;48.278;16.378;2022-07-06T01:00:27;350.37;;;215.57;;
48481;SDS011;34284;48.278;16.378;2022-07-06T01:02:53;350.53;;;219.20;;
48481;SDS011;34284;48.278;16.378;2022-07-06T01:05:19;349.80;;;218.53;;
48481;SDS011;34284;48.278;16.378;2022-07-06T01:07:47;345.50;;;213.43;;
48481;SDS011;34284;48.278;16.378;2022-07-06T01:10:14;354.93;;;212.27;;
48481;SDS011;34284;48.278;16.378;2022-07-06T01:12:40;356.90;;;214.93;;
48481;SDS011;34284;48.278;16.378;2022-07-06T01:15:08;351.37;;;213.37;;
48481;SDS011;34284;48.278;16.378;2022-07-06T01:17:35;347.77;;;214.07;;
48481;SDS011;34284;48.278;16.378;2022-07-06T01:20:08;348.90;;;214.43;;
48481;SDS011;34284;48.278;16.378;2022-07-06T01:22:34;350.77;;;216.30;;
48481;SDS011;34284;48.278;16.378;2022-07-06T01:25:00;350.17;;;216.67;;
48481;SDS011;34284;48.278;16.378;2022-07-06T01:27:26;348.23;;;214.43;;
48481;SDS011;34284;48.278;16.378;2022-07-06T01:29:52;348.17;;;216.23;;
48481;SDS011;34284;48.278;16.378;2022-07-06T01:32:18;356.30;;;213.33;;
48481;SDS011;34284;48.278;16.378;2022-07-06T01:34:44;353.37;;;214.13;;
48481;SDS011;34284;48.278;16.378;2022-07-06T01:37:10;361.17;;;215.07;;
48481;SDS011;34284;48.278;16.378;2022-07-06T01:39:36;352.47;;;216.67;;
48481;SDS011;34284;48.278;16.378;2022-07-06T01:42:02;350.53;;;213.07;;
48481;SDS011;34284;48.278;16.378;2022-07-06T01:44:28;344.63;;;210.03;;
48481;SDS011;34284;48.278;16.378;2022-07-06T01:46:54;346.37;;;212.17;;
48481;SDS011;34284;48.278;16.378;2022-07-06T01:49:20;351.37;;;213.90;;
48481;SDS011;34284;48.278;16.378;2022-07-06T01:51:46;351.77;;;218.00;;
48481;SDS011;34284;48.278;16.378;2022-07-06T01:54:12;352.03;;;217.50;;
48481;SDS011;34284;48.278;16.378;2022-07-06T01:56:39;356.90;;;219.17;;
48481;SDS011;34284;48.278;16.378;2022-07-06T01:59:05;361.03;;;217.43;;
48481;SDS011;34284;48.278;16.378;2022-07-06T02:01:31;354.10;;;217.63;;
48481;SDS011;34284;48.278;16.378;2022-07-06T02:03:57;356.00;;;215.00;;
48481;SDS011;34284;48.278;16.378;2022-07-06T02:06:23;349.60;;;213.47;;
48481;SDS011;34284;48.278;16.378;2022-07-06T02:08:49;350.23;;;216.90;;
48481;SDS011;34284;48.278;16.378;2022-07-06T02:11:16;360.30;;;216.23;;
48481;SDS011;34284;48.278;16.378;2022-07-06T02:13:42;350.00;;;217.67;;
48481;SDS011;34284;48.278;16.378;2022-07-06T02:16:08;357.60;;;218.10;;
48481;SDS011;34284;48.278;16.378;2022-07-06T02:18:35;371.30;;;222.13;;
48481;SDS011;34284;48.278;16.378;2022-07-06T02:21:02;352.33;;;216.93;;
48481;SDS011;34284;48.278;16.378;2022-07-06T02:23:28;350.20;;;215.13;;
48481;SDS011;34284;48.278;16.378;2022-07-06T02:25:54;344.47;;;212.47;;
48481;SDS011;34284;48.278;16.378;2022-07-06T02:28:20;344.70;;;212.57;;
48481;SDS011;34284;48.278;16.378;2022-07-06T02:30:46;350.53;;;216.97;;
48481;SDS011;34284;48.278;16.378;2022-07-06T02:33:12;352.17;;;219.70;;
48481;SDS011;34284;48.278;16.378;2022-07-06T02:35:38;351.33;;;217.77;;
48481;SDS011;34284;48.278;16.378;2022-07-06T02:38:07;363.07;;;218.30;;
48481;SDS011;34284;48.278;16.378;2022-07-06T02:40:33;352.37;;;216.47;;
48481;SDS011;34284;48.278;16.378;2022-07-06T02:42:59;350.17;;;214.03;;
48481;SDS011;34284;48.278;16.378;2022-07-06T02:45:25;356.07;;;216.20;;
48481;SDS011;34284;48.278;16.378;2022-07-06T02:47:51;356.97;;;216.10;;
48481;SDS011;34284;48.278;16.378;2022-07-06T02:50:20;342.93;;;211.53;;
48481;SDS011;34284;48.278;16.378;2022-07-06T02:52:46;369.20;;;217.13;;
48481;SDS011;34284;48.278;16.378;2022-07-06T02:55:12;349.43;;;212.87;;
48481;SDS011;34284;48.278;16.378;2022-07-06T02:57:38;356.90;;;218.03;;
48481;SDS011;34284;48.278;16.378;2022-07-06T03:00:04;347.33;;;215.97;;
48481;SDS011;34284;48.278;16.378;2022-07-06T03:02:30;344.40;;;213.30;;
48481;SDS011;34284;48.278;16.378;2022-07-06T03:04:56;355.97;;;215.27;;
48481;SDS011;34284;48.278;16.378;2022-07-06T03:07:22;347.93;;;213.33;;
48481;SDS011;34284;48.278;16.378;2022-07-06T03:09:48;357.27;;;217.23;;
48481;SDS011;34284;48.278;16.378;2022-07-06T03:12:14;359.03;;;216.57;;
48481;SDS011;34284;48.278;16.378;2022-07-06T03:14:41;357.63;;;217.53;;
48481;SDS011;34284;48.278;16.378;2022-07-06T03:17:07;352.57;;;218.93;;
48481;SDS011;34284;48.278;16.378;2022-07-06T03:19:33;348.27;;;215.40;;
48481;SDS011;34284;48.278;16.378;2022-07-06T03:21:59;344.60;;;214.40;;
48481;SDS011;34284;48.278;16.378;2022-07-06T03:24:25;341.03;;;212.23;;
48481;SDS011;34284;48.278;16.378;2022-07-06T03:26:51;347.17;;;217.70;;
48481;SDS011;34284;48.278;16.378;2022-07-06T03:29:17;349.83;;;217.67;;
48481;SDS011;34284;48.278;16.378;2022-07-06T03:31:43;351.73;;;213.37;;
48481;SDS011;34284;48.278;16.378;2022-07-06T03:34:09;348.67;;;216.53;;
48481;SDS011;34284;48.278;16.378;2022-07-06T03:36:35;347.43;;;214.40;;
48481;SDS011;34284;48.278;16.378;2022-07-06T03:39:01;349.37;;;213.03;;
48481;SDS011;34284;48.278;16.378;2022-07-06T03:41:27;341.33;;;211.63;;
48481;SDS011;34284;48.278;16.378;2022-07-06T03:43:53;359.67;;;216.33;;
48481;SDS011;34284;48.278;16.378;2022-07-06T03:46:19;356.50;;;213.57;;
48481;SDS011;34284;48.278;16.378;2022-07-06T03:48:45;348.50;;;212.97;;
48481;SDS011;34284;48.278;16.378;2022-07-06T03:51:11;350.10;;;212.67;;
48481;SDS011;34284;48.278;16.378;2022-07-06T03:53:38;358.53;;;212.20;;
48481;SDS011;34284;48.278;16.378;2022-07-06T03:56:04;356.53;;;214.13;;
48481;SDS011;34284;48.278;16.378;2022-07-06T03:58:49;344.13;;;209.33;;
48481;SDS011;34284;48.278;16.378;2022-07-06T04:01:14;346.77;;;211.57;;
48481;SDS011;34284;48.278;16.378;2022-07-06T04:03:40;352.53;;;211.20;;
48481;SDS011;34284;48.278;16.378;2022-07-06T04:06:06;349.80;;;213.23;;
48481;SDS011;34284;48.278;16.378;2022-07-06T04:08:32;353.17;;;209.77;;
48481;SDS011;34284;48.278;16.378;2022-07-06T04:10:58;341.77;;;208.17;;
48481;SDS011;34284;48.278;16.378;2022-07-06T04:13:24;341.07;;;206.27;;
48481;SDS011;34284;48.278;16.378;2022-07-06T04:15:51;347.13;;;206.40;;
48481;SDS011;34284;48.278;16.378;2022-07-06T04:18:17;355.17;;;210.10;;
48481;SDS011;34284;48.278;16.378;2022-07-06T04:20:43;349.57;;;211.07;;
48481;SDS011;34284;48.278;16.378;2022-07-06T04:23:09;351.17;;;209.53;;
48481;SDS011;34284;48.278;16.378;2022-07-06T04:25:35;345.80;;;209.60;;
48481;SDS011;34284;48.278;16.378;2022-07-06T04:28:01;361.13;;;212.20;;
48481;SDS011;34284;48.278;16.378;2022-07-06T04:30:27;349.43;;;211.83;;
48481;SDS011;34284;48.278;16.378;2022-07-06T04:32:53;348.00;;;213.43;;
48481;SDS011;34284;48.278;16.378;2022-07-06T04:35:20;349.77;;;216.80;;
48481;SDS011;34284;48.278;16.378;2022-07-06T04:37:46;348.17;;;214.97;;
48481;SDS011;34284;48.278;16.378;2022-07-06T04:40:13;355.33;;;215.27;;
48481;SDS011;34284;48.278;16.378;2022-07-06T04:42:39;351.27;;;215.50;;
48481;SDS011;34284;48.278;16.378;2022-07-06T04:45:05;345.97;;;212.97;;
48481;SDS011;34284;48.278;16.378;2022-07-06T04:47:31;349.30;;;214.97;;
48481;SDS011;34284;48.278;16.378;2022-07-06T04:49:57;346.00;;;214.37;;
48481;SDS011;34284;48.278;16.378;2022-07-06T04:52:23;345.43;;;212.77;;
48481;SDS011;34284;48.278;16.378;2022-07-06T04:54:49;349.77;;;218.77;;
48481;SDS011;34284;48.278;16.378;2022-07-06T04:57:15;357.47;;;220.60;;
48481;SDS011;34284;48.278;16.378;2022-07-06T04:59:41;356.03;;;225.27;;
48481;SDS011;34284;48.278;16.378;2022-07-06T05:02:07;354.80;;;228.83;;
48481;SDS011;34284;48.278;16.378;2022-07-06T05:04:33;351.15;;;228.32;;
48481;SDS011;34284;48.278;16.378;2022-07-06T05:06:59;353.30;;;233.70;;
48481;SDS011;34284;48.278;16.378;2022-07-06T05:09:25;354.55;;;231.85;;
48481;SDS011;34284;48.278;16.378;2022-07-06T05:11:51;371.55;;;234.48;;
48481;SDS011;34284;48.278;16.378;2022-07-06T05:14:17;359.05;;;231.13;;
48481;SDS011;34284;48.278;16.378;2022-07-06T05:16:43;369.52;;;237.63;;
48481;SDS011;34284;48.278;16.378;2022-07-06T05:19:09;362.67;;;240.18;;
48481;SDS011;34284;48.278;16.378;2022-07-06T05:21:35;360.38;;;243.38;;
48481;SDS011;34284;48.278;16.378;2022-07-06T05:24:01;362.08;;;246.68;;
48481;SDS011;34284;48.278;16.378;2022-07-06T05:26:27;360.60;;;239.30;;
48481;SDS011;34284;48.278;16.378;2022-07-06T05:28:53;360.58;;;247.13;;
48481;SDS011;34284;48.278;16.378;2022-07-06T05:31:19;365.20;;;257.17;;
48481;SDS011;34284;48.278;16.378;2022-07-06T05:33:45;377.52;;;253.13;;
48481;SDS011;34284;48.278;16.378;2022-07-06T05:36:11;375.52;;;263.83;;
48481;SDS011;34284;48.278;16.378;2022-07-06T05:38:38;382.25;;;265.40;;
48481;SDS011;34284;48.278;16.378;2022-07-06T05:41:04;370.80;;;268.23;;
48481;SDS011;34284;48.278;16.378;2022-07-06T05:43:30;375.42;;;274.58;;
48481;SDS011;34284;48.278;16.378;2022-07-06T05:45:56;382.40;;;273.88;;
48481;SDS011;34284;48.278;16.378;2022-07-06T05:48:22;389.17;;;283.20;;
48481;SDS011;34284;48.278;16.378;2022-07-06T05:51:06;385.25;;;282.40;;
48481;SDS011;34284;48.278;16.378;2022-07-06T05:53:32;390.80;;;289.02;;
48481;SDS011;34284;48.278;16.378;2022-07-06T05:55:58;386.42;;;292.10;;
48481;SDS011;34284;48.278;16.378;2022-07-06T05:58:24;385.63;;;297.95;;
48481;SDS011;34284;48.278;16.378;2022-07-06T06:00:50;395.38;;;301.38;;
48481;SDS011;34284;48.278;16.378;2022-07-06T06:03:17;391.20;;;303.30;;
48481;SDS011;34284;48.278;16.378;2022-07-06T06:05:43;393.42;;;313.13;;
48481;SDS011;34284;48.278;16.378;2022-07-06T06:08:09;403.60;;;320.77;;
48481;SDS011;34284;48.278;16.378;2022-07-06T06:10:35;390.58;;;309.92;;
48481;SDS011;34284;48.278;16.378;2022-07-06T06:13:01;392.95;;;312.48;;
48481;SDS011;34284;48.278;16.378;2022-07-06T06:15:27;391.48;;;315.60;;
48481;SDS011;34284;48.278;16.378;2022-07-06T06:17:53;413.27;;;335.25;;
48481;SDS011;34284;48.278;16.378;2022-07-06T06:20:20;390.23;;;316.95;;
48481;SDS011;34284;48.278;16.378;2022-07-06T06:22:47;381.40;;;300.73;;
48481;SDS011;34284;48.278;16.378;2022-07-06T06:25:13;376.48;;;289.67;;
48481;SDS011;34284;48.278;16.378;2022-07-06T06:27:40;377.25;;;289.30;;
48481;SDS011;34284;48.278;16.378;2022-07-06T06:30:06;391.88;;;300.35;;
48481;SDS011;34284;48.278;16.378;2022-07-06T06:32:32;382.35;;;302.77;;
48481;SDS011;34284;48.278;16.378;2022-07-06T06:34:58;381.27;;;298.77;;
48481;SDS011;34284;48.278;16.378;2022-07-06T06:37:24;392.13;;;299.88;;
48481;SDS011;34284;48.278;16.378;2022-07-06T06:39:50;394.55;;;312.35;;
48481;SDS011;34284;48.278;16.378;2022-07-06T06:42:16;407.42;;;320.90;;
48481;SDS011;34284;48.278;16.378;2022-07-06T06:44:42;400.10;;;329.08;;
48481;SDS011;34284;48.278;16.378;2022-07-06T06:47:08;417.52;;;334.23;;
48481;SDS011;34284;48.278;16.378;2022-07-06T06:49:34;404.42;;;328.77;;
48481;SDS011;34284;48.278;16.378;2022-07-06T06:52:00;415.98;;;350.98;;
48481;SDS011;34284;48.278;16.378;2022-07-06T06:54:26;416.65;;;360.60;;
48481;SDS011;34284;48.278;16.378;2022-07-06T06:56:52;417.00;;;348.27;;
48481;SDS011;34284;48.278;16.378;2022-07-06T06:59:18;414.65;;;358.08;;
48481;SDS011;34284;48.278;16.378;2022-07-06T07:01:44;414.50;;;361.50;;
48481;SDS011;34284;48.278;16.378;2022-07-06T07:04:10;416.25;;;367.75;;
48481;SDS011;34284;48.278;16.378;2022-07-06T07:06:36;418.95;;;372.73;;
48481;SDS011;34284;48.278;16.378;2022-07-06T07:09:02;437.75;;;390.85;;
48481;SDS011;34284;48.278;16.378;2022-07-06T07:11:28;429.15;;;381.88;;
48481;SDS011;34284;48.278;16.378;2022-07-06T07:13:54;445.80;;;398.50;;
48481;SDS011;34284;48.278;16.378;2022-07-06T07:16:20;444.70;;;397.00;;
48481;SDS011;34284;48.278;16.378;2022-07-06T07:18:46;460.45;;;411.08;;
48481;SDS011;34284;48.278;16.378;2022-07-06T07:21:12;465.67;;;416.90;;
48481;SDS011;34284;48.278;16.378;2022-07-06T07:23:38;463.35;;;414.98;;
48481;SDS011;34284;48.278;16.378;2022-07-06T07:26:04;468.92;;;420.67;;
48481;SDS011;34284;48.278;16.378;2022-07-06T07:28:31;483.65;;;434.75;;
48481;SDS011;34284;48.278;16.378;2022-07-06T07:30:57;484.80;;;436.17;;
48481;SDS011;34284;48.278;16.378;2022-07-06T07:33:23;485.30;;;435.95;;
48481;SDS011;34284;48.278;16.378;2022-07-06T07:35:49;479.63;;;431.13;;
48481;SDS011;34284;48.278;16.378;2022-07-06T07:38:15;504.98;;;455.52;;
48481;SDS011;34284;48.278;16.378;2022-07-06T07:40:41;492.90;;;444.20;;
48481;SDS011;34284;48.278;16.378;2022-07-06T07:43:07;502.88;;;453.63;;
48481;SDS011;34284;48.278;16.378;2022-07-06T07:45:33;502.50;;;453.25;;
48481;SDS011;34284;48.278;16.378;2022-07-06T07:47:59;509.15;;;460.25;;
48481;SDS011;34284;48.278;16.378;2022-07-06T07:50:26;505.35;;;455.73;;
48481;SDS011;34284;48.278;16.378;2022-07-06T07:52:52;489.55;;;441.33;;
48481;SDS011;34284;48.278;16.378;2022-07-06T07:55:18;468.55;;;420.75;;
48481;SDS011;34284;48.278;16.378;2022-07-06T07:57:44;452.50;;;405.58;;
48481;SDS011;34284;48.278;16.378;2022-07-06T08:00:10;460.85;;;412.58;;
48481;SDS011;34284;48.278;16.378;2022-07-06T08:02:36;443.63;;;397.48;;
48481;SDS011;34284;48.278;16.378;2022-07-06T08:05:02;434.98;;;389.45;;
48481;SDS011;34284;48.278;16.378;2022-07-06T08:07:28;432.20;;;386.58;;
48481;SDS011;34284;48.278;16.378;2022-07-06T08:09:54;441.20;;;394.75;;
48481;SDS011;34284;48.278;16.378;2022-07-06T08:12:20;439.75;;;393.00;;
48481;SDS011;34284;48.278;16.378;2022-07-06T08:14:46;463.13;;;415.45;;
48481;SDS011;34284;48.278;16.378;2022-07-06T08:17:12;479.75;;;431.70;;
48481;SDS011;34284;48.278;16.378;2022-07-06T08:19:38;491.80;;;443.55;;
48481;SDS011;34284;48.278;16.378;2022-07-06T08:22:04;487.98;;;439.85;;
48481;SDS011;34284;48.278;16.378;2022-07-06T08:24:35;494.52;;;446.13;;
48481;SDS011;34284;48.278;16.378;2022-07-06T08:27:01;492.17;;;443.83;;
48481;SDS011;34284;48.278;16.378;2022-07-06T08:29:28;526.60;;;476.77;;
48481;SDS011;34284;48.278;16.378;2022-07-06T08:31:54;535.63;;;485.27;;
48481;SDS011;34284;48.278;16.378;2022-07-06T08:34:20;518.88;;;467.23;;
48481;SDS011;34284;48.278;16.378;2022-07-06T08:36:46;530.40;;;479.38;;
48481;SDS011;34284;48.278;16.378;2022-07-06T08:39:12;532.08;;;481.05;;
48481;SDS011;34284;48.278;16.378;2022-07-06T08:41:40;523.92;;;473.67;;
48481;SDS011;34284;48.278;16.378;2022-07-06T08:44:07;528.03;;;478.35;;
48481;SDS011;34284;48.278;16.378;2022-07-06T08:46:33;541.28;;;491.83;;
48481;SDS011;34284;48.278;16.378;2022-07-06T08:49:00;547.15;;;497.38;;
48481;SDS011;34284;48.278;16.378;2022-07-06T08:51:27;540.28;;;489.75;;
48481;SDS011;34284;48.278;16.378;2022-07-06T08:53:53;526.90;;;478.05;;
48481;SDS011;34284;48.278;16.378;2022-07-06T08:56:20;504.85;;;457.08;;
48481;SDS011;34284;48.278;16.378;2022-07-06T08:58:46;506.77;;;458.08;;
48481;SDS011;34284;48.278;16.378;2022-07-06T09:01:12;503.63;;;455.35;;
48481;SDS011;34284;48.278;16.378;2022-07-06T09:03:39;484.77;;;435.90;;
48481;SDS011;34284;48.278;16.378;2022-07-06T09:06:05;495.55;;;447.52;;
48481;SDS011;34284;48.278;16.378;2022-07-06T09:08:32;505.13;;;456.52;;
48481;SDS011;34284;48.278;16.378;2022-07-06T09:10:58;531.03;;;481.15;;
48481;SDS011;34284;48.278;16.378;2022-07-06T09:13:24;537.70;;;487.90;;
48481;SDS011;34284;48.278;16.378;2022-07-06T09:15:50;535.92;;;485.77;;
48481;SDS011;34284;48.278;16.378;2022-07-06T09:18:16;558.38;;;506.10;;
48481;SDS011;34284;48.278;16.378;2022-07-06T09:20:42;550.78;;;500.80;;
48481;SDS011;34284;48.278;16.378;2022-07-06T09:23:08;558.38;;;508.10;;
48481;SDS011;34284;48.278;16.378;2022-07-06T09:25:34;551.35;;;501.15;;
48481;SDS011;34284;48.278;16.378;2022-07-06T09:28:00;550.60;;;501.05;;
48481;SDS011;34284;48.278;16.378;2022-07-06T09:30:27;571.53;;;520.83;;
48481;SDS011;34284;48.278;16.378;2022-07-06T09:32:54;582.50;;;531.30;;
48481;SDS011;34284;48.278;16.378;2022-07-06T09:35:24;562.35;;;511.92;;
48481;SDS011;34284;48.278;16.378;2022-07-06T09:38:01;551.10;;;500.88;;
48481;SDS011;34284;48.278;16.378;2022-07-06T09:40:27;538.65;;;488.42;;
48481;SDS011;34284;48.278;16.378;2022-07-06T09:45:39;518.10;;;468.40;;
48481;SDS011;34284;48.278;16.378;2022-07-06T09:48:06;517.28;;;465.85;;
48481;SDS011;34284;48.278;16.378;2022-07-06T09:50:38;492.42;;;444.48;;
48481;SDS011;34284;48.278;16.378;2022-07-06T09:53:04;491.25;;;442.88;;
48481;SDS011;34284;48.278;16.378;2022-07-06T09:55:31;499.27;;;451.00;;
48481;SDS011;34284;48.278;16.378;2022-07-06T09:57:57;514.90;;;465.52;;
48481;SDS011;34284;48.278;16.378;2022-07-06T10:00:23;537.28;;;487.38;;
48481;SDS011;34284;48.278;16.378;2022-07-06T10:02:49;540.85;;;489.42;;
48481;SDS011;34284;48.278;16.378;2022-07-06T10:05:16;556.03;;;505.58;;
48481;SDS011;34284;48.278;16.378;2022-07-06T10:07:45;551.22;;;500.58;;
48481;SDS011;34284;48.278;16.378;2022-07-06T10:10:14;560.85;;;510.35;;
48481;SDS011;34284;48.278;16.378;2022-07-06T10:12:40;554.20;;;503.73;;
48481;SDS011;34284;48.278;16.378;2022-07-06T10:15:07;581.40;;;529.80;;
48481;SDS011;34284;48.278;16.378;2022-07-06T10:17:34;576.17;;;525.13;;
48481;SDS011;34284;48.278;16.378;2022-07-06T10:20:00;573.13;;;522.10;;
48481;SDS011;34284;48.278;16.378;2022-07-06T10:22:27;572.42;;;521.50;;
48481;SDS011;34284;48.278;16.378;2022-07-06T10:24:53;576.85;;;526.30;;
48481;SDS011;34284;48.278;16.378;2022-07-06T10:27:20;577.53;;;526.58;;
48481;SDS011;34284;48.278;16.378;2022-07-06T10:29:46;555.08;;;504.77;;
48481;SDS011;34284;48.278;16.378;2022-07-06T10:32:11;562.28;;;511.90;;
48481;SDS011;34284;48.278;16.378;2022-07-06T10:34:38;576.25;;;525.83;;
48481;SDS011;34284;48.278;16.378;2022-07-06T10:37:04;572.03;;;521.40;;
48481;SDS011;34284;48.278;16.378;2022-07-06T10:39:34;557.13;;;506.95;;
48481;SDS011;34284;48.278;16.378;2022-07-06T10:45:04;545.47;;;494.52;;
48481;SDS011;34284;48.278;16.378;2022-07-06T10:47:30;589.53;;;535.92;;
48481;SDS011;34284;48.278;16.378;2022-07-06T10:49:59;566.42;;;516.00;;
48481;SDS011;34284;48.278;16.378;2022-07-06T10:55:32;577.35;;;526.35;;
48481;SDS011;34284;48.278;16.378;2022-07-06T10:57:56;607.22;;;555.03;;
48481;SDS011;34284;48.278;16.378;2022-07-06T11:00:22;628.53;;;575.65;;
48481;SDS011;34284;48.278;16.378;2022-07-06T11:02:48;625.97;;;573.38;;
48481;SDS011;34284;48.278;16.378;2022-07-06T11:08:19;605.17;;;553.63;;
48481;SDS011;34284;48.278;16.378;2022-07-06T11:10:47;602.17;;;550.38;;
48481;SDS011;34284;48.278;16.378;2022-07-06T11:13:26;591.50;;;540.72;;
48481;SDS011;34284;48.278;16.378;2022-07-06T11:15:52;572.83;;;522.03;;
48481;SDS011;34284;48.278;16.378;2022-07-06T11:18:26;568.38;;;517.33;;
48481;SDS011;34284;48.278;16.378;2022-07-06T11:23:54;519.38;;;469.88;;
48481;SDS011;34284;48.278;16.378;2022-07-06T11:26:20;494.30;;;446.98;;
48481;SDS011;34284;48.278;16.378;2022-07-06T11:28:47;473.35;;;425.15;;
48481;SDS011;34284;48.278;16.378;2022-07-06T11:31:14;439.23;;;393.25;;
48481;SDS011;34284;48.278;16.378;2022-07-06T11:33:40;448.20;;;399.83;;
48481;SDS011;34284;48.278;16.378;2022-07-06T11:36:13;456.20;;;408.75;;
48481;SDS011;34284;48.278;16.378;2022-07-06T11:38:40;452.35;;;403.98;;
48481;SDS011;34284;48.278;16.378;2022-07-06T11:41:06;478.52;;;429.25;;
48481;SDS011;34284;48.278;16.378;2022-07-06T11:43:32;491.75;;;442.55;;
48481;SDS011;34284;48.278;16.378;2022-07-06T11:45:58;492.55;;;442.90;;
48481;SDS011;34284;48.278;16.378;2022-07-06T11:48:24;522.38;;;472.05;;
48481;SDS011;34284;48.278;16.378;2022-07-06T11:51:02;517.03;;;467.55;;
48481;SDS011;34284;48.278;16.378;2022-07-06T11:53:28;543.65;;;493.27;;
48481;SDS011;34284;48.278;16.378;2022-07-06T11:55:54;536.22;;;485.17;;
48481;SDS011;34284;48.278;16.378;2022-07-06T11:58:21;553.13;;;502.70;;
48481;SDS011;34284;48.278;16.378;2022-07-06T12:01:04;570.67;;;519.28;;
48481;SDS011;34284;48.278;16.378;2022-07-06T12:03:31;578.25;;;526.35;;
48481;SDS011;34284;48.278;16.378;2022-07-06T12:05:58;575.90;;;524.10;;
48481;SDS011;34284;48.278;16.378;2022-07-06T12:08:24;575.22;;;524.13;;
48481;SDS011;34284;48.278;16.378;2022-07-06T12:10:50;579.50;;;528.22;;
48481;SDS011;34284;48.278;16.378;2022-07-06T12:13:17;571.15;;;520.50;;
48481;SDS011;34284;48.278;16.378;2022-07-06T12:15:43;564.13;;;513.75;;
48481;SDS011;34284;48.278;16.378;2022-07-06T12:18:09;578.55;;;527.05;;
48481;SDS011;34284;48.278;16.378;2022-07-06T12:20:36;587.30;;;535.78;;
48481;SDS011;34284;48.278;16.378;2022-07-06T12:23:03;603.72;;;551.20;;
48481;SDS011;34284;48.278;16.378;2022-07-06T12:25:32;596.63;;;544.45;;
48481;SDS011;34284;48.278;16.378;2022-07-06T12:27:59;617.05;;;564.30;;
48481;SDS011;34284;48.278;16.378;2022-07-06T12:30:25;618.65;;;564.67;;
48481;SDS011;34284;48.278;16.378;2022-07-06T12:35:36;614.08;;;561.85;;
48481;SDS011;34284;48.278;16.378;2022-07-06T12:38:02;605.30;;;553.08;;
48481;SDS011;34284;48.278;16.378;2022-07-06T12:40:28;595.00;;;543.33;;
48481;SDS011;34284;48.278;16.378;2022-07-06T12:42:54;584.75;;;533.33;;
48481;SDS011;34284;48.278;16.378;2022-07-06T12:45:25;581.10;;;529.80;;
48481;SDS011;34284;48.278;16.378;2022-07-06T12:48:02;580.72;;;527.72;;
48481;SDS011;34284;48.278;16.378;2022-07-06T12:50:33;565.92;;;514.60;;
48481;SDS011;34284;48.278;16.378;2022-07-06T12:52:59;568.92;;;517.67;;
48481;SDS011;34284;48.278;16.378;2022-07-06T12:55:26;591.50;;;539.67;;
48481;SDS011;34284;48.278;16.378;2022-07-06T12:57:53;577.88;;;526.60;;
48481;SDS011;34284;48.278;16.378;2022-07-06T13:00:19;569.67;;;519.10;;
48481;SDS011;34284;48.278;16.378;2022-07-06T13:02:47;585.13;;;534.10;;
48481;SDS011;34284;48.278;16.378;2022-07-06T13:05:15;587.35;;;534.80;;
48481;SDS011;34284;48.278;16.378;2022-07-06T13:07:44;569.53;;;518.78;;
48481;SDS011;34284;48.278;16.378;2022-07-06T13:10:11;574.72;;;524.08;;
48481;SDS011;34284;48.278;16.378;2022-07-06T13:12:38;581.17;;;529.70;;
48481;SDS011;34284;48.278;16.378;2022-07-06T13:15:05;605.80;;;553.15;;
48481;SDS011;34284;48.278;16.378;2022-07-06T13:17:32;608.20;;;555.95;;
48481;SDS011;34284;48.278;16.378;2022-07-06T13:19:58;613.72;;;560.92;;
48481;SDS011;34284;48.278;16.378;2022-07-06T13:22:24;610.97;;;558.60;;
48481;SDS011;34284;48.278;16.378;2022-07-06T13:24:50;609.88;;;557.70;;
48481;SDS011;34284;48.278;16.378;2022-07-06T13:27:16;600.63;;;549.13;;
48481;SDS011;34284;48.278;16.378;2022-07-06T13:29:43;614.38;;;562.17;;
48481;SDS011;34284;48.278;16.378;2022-07-06T13:32:09;603.47;;;550.92;;
48481;SDS011;34284;48.278;16.378;2022-07-06T13:34:35;601.72;;;549.35;;
48481;SDS011;34284;48.278;16.378;2022-07-06T13:37:01;609.83;;;557.35;;
48481;SDS011;34284;48.278;16.378;2022-07-06T13:39:27;627.67;;;574.60;;
48481;SDS011;34284;48.278;16.378;2022-07-06T13:41:54;612.17;;;559.58;;
48481;SDS011;34284;48.278;16.378;2022-07-06T13:44:20;623.47;;;571.17;;
48481;SDS011;34284;48.278;16.378;2022-07-06T13:46:46;581.55;;;530.70;;
48481;SDS011;34284;48.278;16.378;2022-07-06T13:49:12;578.55;;;527.67;;
48481;SDS011;34284;48.278;16.378;2022-07-06T13:51:38;577.75;;;526.75;;
48481;SDS011;34284;48.278;16.378;2022-07-06T13:54:04;562.67;;;511.92;;
48481;SDS011;34284;48.278;16.378;2022-07-06T13:56:31;579.47;;;527.75;;
48481;SDS011;34284;48.278;16.378;2022-07-06T13:58:57;583.20;;;530.33;;